createdAt,value
2023-04-04T00:01:44.116Z,62.82
2023-04-04T00:04:10.593Z,62.63
2023-04-04T00:06:37.427Z,63.65
2023-04-04T00:09:04.250Z,63.93
2023-04-04T00:11:30.814Z,63.94
2023-04-04T00:13:57.310Z,64.51
2023-04-04T00:16:24.257Z,64.71
2023-04-04T00:18:51.040Z,65.00
2023-04-04T00:21:17.967Z,65.38
2023-04-04T00:23:44.742Z,65.09
2023-04-04T00:26:11.221Z,65.43
2023-04-04T00:28:37.830Z,65.53
2023-04-04T00:31:04.503Z,65.61
2023-04-04T00:33:31.124Z,66.02
2023-04-04T00:35:57.722Z,66.54
2023-04-04T00:38:24.295Z,66.32
2023-04-04T00:40:51.460Z,66.75
2023-04-04T00:43:18.885Z,66.84
2023-04-04T00:45:46.549Z,66.93
2023-04-04T00:48:13.282Z,66.66
2023-04-04T00:50:39.978Z,66.90
2023-04-04T00:53:06.738Z,67.26
2023-04-04T00:55:33.528Z,66.77
2023-04-04T00:58:00.262Z,67.19
2023-04-04T01:00:27.520Z,68.18
2023-04-04T01:02:54.049Z,67.95
2023-04-04T01:05:20.612Z,68.15
2023-04-04T01:07:47.491Z,67.95
2023-04-04T01:10:14.158Z,68.68
2023-04-04T01:12:42.088Z,69.23
2023-04-04T01:15:09.143Z,69.68
2023-04-04T01:17:37.393Z,69.20
2023-04-04T01:20:16.218Z,69.25
2023-04-04T01:22:43.864Z,69.62
2023-04-04T01:25:11.595Z,69.90
2023-04-04T01:27:38.905Z,70.43
2023-04-04T01:30:06.716Z,70.41
2023-04-04T01:32:33.143Z,70.79
2023-04-04T01:35:09.792Z,70.55
2023-04-04T01:37:44.645Z,70.50
2023-04-04T01:40:21.641Z,71.00
2023-04-04T01:42:49.236Z,71.21
2023-04-04T01:45:15.763Z,71.04
2023-04-04T01:47:43.358Z,71.88
2023-04-04T01:50:11.084Z,71.56
2023-04-04T01:52:38.553Z,71.39
2023-04-04T01:55:05.328Z,71.12
2023-04-04T01:57:31.859Z,71.74
2023-04-04T01:59:58.379Z,71.77
2023-04-04T02:02:25.129Z,71.55
2023-04-04T02:04:52.265Z,71.86
2023-04-04T02:07:19.335Z,72.70
2023-04-04T02:09:45.807Z,72.63
2023-04-04T02:12:12.700Z,72.04
2023-04-04T02:14:39.937Z,71.85
2023-04-04T02:17:06.930Z,72.07
2023-04-04T02:19:33.641Z,72.47
2023-04-04T02:22:00.194Z,73.00
2023-04-04T02:24:26.870Z,72.60
2023-04-04T02:26:53.326Z,72.62
2023-04-04T02:29:19.842Z,72.95
2023-04-04T02:31:46.516Z,73.47
2023-04-04T02:34:13.134Z,73.69
2023-04-04T02:36:39.612Z,73.32
2023-04-04T02:39:06.113Z,73.47
2023-04-04T02:41:32.681Z,73.30
2023-04-04T02:43:59.117Z,73.78
2023-04-04T02:46:25.599Z,73.64
2023-04-04T02:48:52.217Z,73.71
2023-04-04T02:51:18.872Z,73.67
2023-04-04T02:53:45.597Z,74.37
2023-04-04T02:56:12.267Z,74.16
2023-04-04T02:58:40.316Z,74.01
2023-04-04T03:01:08.103Z,74.40
2023-04-04T03:03:34.937Z,74.20
2023-04-04T03:06:01.667Z,73.95
2023-04-04T03:08:28.587Z,73.62
2023-04-04T03:10:55.066Z,74.15
2023-04-04T03:13:21.521Z,74.32
2023-04-04T03:15:49.637Z,74.38
2023-04-04T03:18:16.476Z,74.69
2023-04-04T03:20:43.019Z,74.67
2023-04-04T03:23:09.516Z,74.80
2023-04-04T03:25:36.274Z,74.72
2023-04-04T03:28:10.057Z,74.83
2023-04-04T03:30:36.682Z,75.19
2023-04-04T03:33:09.865Z,74.91
2023-04-04T03:35:40.149Z,75.05
2023-04-04T03:38:07.182Z,75.38
2023-04-04T03:40:33.866Z,74.97
2023-04-04T03:43:02.998Z,75.56
2023-04-04T03:45:32.827Z,75.33
2023-04-04T03:47:59.381Z,74.72
2023-04-04T03:50:25.997Z,74.99
2023-04-04T03:52:52.546Z,75.24
2023-04-04T03:55:19.094Z,75.27
2023-04-04T03:57:45.612Z,75.70
2023-04-04T04:00:12.489Z,75.29
2023-04-04T04:02:39.641Z,75.26
2023-04-04T04:05:06.487Z,75.20
2023-04-04T04:07:33.048Z,74.96
2023-04-04T04:09:59.578Z,75.06
2023-04-04T04:12:26.264Z,75.87
2023-04-04T04:14:52.994Z,76.25
2023-04-04T04:17:19.784Z,76.79
2023-04-04T04:19:46.778Z,76.94
2023-04-04T04:22:13.274Z,76.98
2023-04-04T04:24:39.930Z,77.68
2023-04-04T04:27:07.024Z,78.26
2023-04-04T04:29:33.682Z,78.37
2023-04-04T04:32:01.667Z,78.33
2023-04-04T04:34:29.037Z,77.90
2023-04-04T04:36:55.640Z,77.86
2023-04-04T04:39:22.297Z,77.64
2023-04-04T04:41:48.994Z,77.33
2023-04-04T04:44:15.964Z,77.68
2023-04-04T04:46:42.532Z,77.53
2023-04-04T04:49:09.310Z,76.77
2023-04-04T04:51:36.126Z,76.31
2023-04-04T04:54:03.365Z,76.86
2023-04-04T04:56:29.940Z,76.19
2023-04-04T04:58:56.566Z,76.61
2023-04-04T05:01:23.209Z,76.42
2023-04-04T05:03:51.981Z,76.85
2023-04-04T05:06:19.385Z,76.01
2023-04-04T05:08:45.878Z,75.92
2023-04-04T05:11:12.387Z,75.00
2023-04-04T05:13:40.260Z,74.47
2023-04-04T05:16:07.132Z,73.13
2023-04-04T05:18:33.701Z,73.07
2023-04-04T05:21:00.631Z,73.03
2023-04-04T05:23:27.327Z,71.62
2023-04-04T05:25:58.007Z,71.40
2023-04-04T05:28:24.470Z,71.33
2023-04-04T05:30:51.189Z,71.28
2023-04-04T05:33:22.190Z,70.64
2023-04-04T05:35:48.833Z,71.19
2023-04-04T05:38:15.425Z,70.86
2023-04-04T05:40:42.480Z,71.18
2023-04-04T05:43:09.458Z,71.24
2023-04-04T05:45:37.422Z,70.61
2023-04-04T05:48:05.595Z,70.14
2023-04-04T05:50:32.175Z,70.16
2023-04-04T05:52:58.804Z,69.69
2023-04-04T05:55:25.412Z,68.73
2023-04-04T05:57:51.946Z,68.41
2023-04-04T06:00:19.454Z,68.36
2023-04-04T06:02:46.471Z,68.50
2023-04-04T06:05:13.069Z,67.96
2023-04-04T06:07:39.711Z,67.50
2023-04-04T06:10:07.572Z,67.53
2023-04-04T06:12:34.282Z,67.38
2023-04-04T06:15:00.894Z,67.17
2023-04-04T06:17:27.413Z,66.70
2023-04-04T06:19:55.319Z,66.42
2023-04-04T06:22:21.991Z,66.51
2023-04-04T06:24:48.837Z,66.20
2023-04-04T06:27:15.832Z,65.42
2023-04-04T06:29:42.839Z,66.35
2023-04-04T06:32:09.640Z,65.23
2023-04-04T06:34:36.074Z,65.81
2023-04-04T06:37:04.489Z,65.25
2023-04-04T06:39:31.879Z,65.12
2023-04-04T06:41:58.438Z,64.39
2023-04-04T06:44:24.881Z,64.29
2023-04-04T06:46:51.584Z,63.67
2023-04-04T06:49:18.081Z,62.92
2023-04-04T06:51:44.685Z,62.88
2023-04-04T06:54:11.624Z,63.36
2023-04-04T06:56:38.300Z,63.06
2023-04-04T06:59:05.536Z,61.72
2023-04-04T07:01:35.620Z,59.23
2023-04-04T07:04:03.352Z,59.80
2023-04-04T07:06:31.170Z,57.11
2023-04-04T07:08:58.121Z,52.25
2023-04-04T07:11:24.814Z,45.95
2023-04-04T07:13:51.552Z,46.63
2023-04-04T07:16:18.262Z,40.36
2023-04-04T07:18:45.091Z,37.21
2023-04-04T07:21:11.899Z,33.84
2023-04-04T07:23:38.812Z,32.83
2023-04-04T07:26:05.985Z,29.51
2023-04-04T07:28:32.907Z,27.24
2023-04-04T07:31:01.929Z,30.42
2023-04-04T07:33:28.833Z,32.75
2023-04-04T07:35:55.462Z,37.59
2023-04-04T07:38:22.475Z,39.81
2023-04-04T07:40:50.671Z,43.72
2023-04-04T07:43:17.250Z,47.93
2023-04-04T07:45:44.304Z,46.81
2023-04-04T07:48:11.312Z,42.56
2023-04-04T07:50:38.377Z,44.31
2023-04-04T07:53:05.195Z,45.02
2023-04-04T07:55:31.806Z,47.46
2023-04-04T07:57:58.636Z,49.97
2023-04-04T08:00:26.685Z,48.28
2023-04-04T08:02:54.923Z,46.70
2023-04-04T08:05:22.185Z,43.01
2023-04-04T08:07:48.904Z,38.28
2023-04-04T08:10:17.966Z,36.51
2023-04-04T08:12:45.301Z,33.70
2023-04-04T08:15:12.445Z,36.59
2023-04-04T08:17:39.832Z,32.69
2023-04-04T08:20:07.339Z,36.39
2023-04-04T08:22:33.955Z,37.06
2023-04-04T08:25:00.796Z,38.39
2023-04-04T08:27:28.048Z,39.17
2023-04-04T08:29:54.833Z,39.26
2023-04-04T08:32:22.606Z,40.87
2023-04-04T08:34:49.826Z,41.61
2023-04-04T08:37:16.968Z,41.21
2023-04-04T08:39:44.059Z,41.58
2023-04-04T08:42:11.956Z,41.56
2023-04-04T08:44:40.650Z,40.58
2023-04-04T08:47:09.512Z,41.25
2023-04-04T08:49:38.721Z,42.36
2023-04-04T08:52:06.518Z,41.30
2023-04-04T08:54:35.439Z,42.93
2023-04-04T08:57:03.473Z,44.37
2023-04-04T08:59:30.286Z,44.42
2023-04-04T09:02:25.955Z,43.39
2023-04-04T09:05:05.392Z,41.26
2023-04-04T09:07:33.527Z,42.89
2023-04-04T09:10:01.503Z,43.31
2023-04-04T09:12:29.190Z,43.89
2023-04-04T09:14:56.925Z,43.49
2023-04-04T09:17:23.810Z,45.01
2023-04-04T09:19:50.518Z,43.87
2023-04-04T09:22:17.780Z,41.88
2023-04-04T09:24:44.447Z,41.45
2023-04-04T09:27:11.993Z,41.00
2023-04-04T09:29:40.019Z,42.29
2023-04-04T09:32:10.456Z,43.28
2023-04-04T09:34:37.878Z,44.29
2023-04-04T09:37:05.957Z,45.04
2023-04-04T09:39:34.456Z,46.64
2023-04-04T09:42:01.803Z,43.72
2023-04-04T09:44:33.368Z,42.76
2023-04-04T09:49:58.965Z,43.79
2023-04-04T09:52:25.619Z,42.50
2023-04-04T09:54:57.151Z,41.95
2023-04-04T09:57:34.833Z,40.99
2023-04-04T10:00:05.174Z,40.49
2023-04-04T10:02:31.888Z,40.46
2023-04-04T10:05:06.128Z,43.13
2023-04-04T10:07:33.924Z,43.48
2023-04-04T10:10:07.656Z,42.71
2023-04-04T10:12:34.656Z,43.38
2023-04-04T10:15:01.730Z,42.67
2023-04-04T10:17:36.605Z,42.67
2023-04-04T10:20:09.181Z,41.99
2023-04-04T10:22:37.091Z,41.48
2023-04-04T10:25:06.607Z,41.16
2023-04-04T10:27:34.519Z,42.08
2023-04-04T10:30:01.718Z,42.35
2023-04-04T10:32:36.990Z,40.45
2023-04-04T10:35:10.842Z,41.40
2023-04-04T10:37:49.664Z,41.58
2023-04-04T10:40:19.641Z,41.20
2023-04-04T10:42:47.524Z,42.49
2023-04-04T10:45:21.155Z,43.67
2023-04-04T10:47:48.758Z,43.91
2023-04-04T10:50:15.712Z,43.44
2023-04-04T10:52:45.954Z,42.49
2023-04-04T10:55:13.808Z,42.40
2023-04-04T10:57:42.519Z,42.26
2023-04-04T11:00:11.620Z,43.27
2023-04-04T11:02:58.581Z,43.90
2023-04-04T11:05:33.197Z,43.10
2023-04-04T11:08:08.645Z,44.03
2023-04-04T11:10:41.864Z,44.17
2023-04-04T11:13:15.811Z,44.37
2023-04-04T11:16:05.256Z,44.22
2023-04-04T11:18:33.962Z,43.50
2023-04-04T11:21:07.664Z,43.37
2023-04-04T11:23:49.301Z,43.09
2023-04-04T11:26:35.072Z,43.72
2023-04-04T11:29:03.382Z,45.58
2023-04-04T11:31:33.743Z,45.91
2023-04-04T11:34:05.813Z,47.17
2023-04-04T11:36:35.577Z,48.53
2023-04-04T11:39:21.264Z,48.43
2023-04-04T11:42:08.318Z,49.36
2023-04-04T11:44:42.000Z,48.32
2023-04-04T11:47:11.385Z,48.06
2023-04-04T11:49:42.696Z,47.29
2023-04-04T11:52:14.070Z,46.51
2023-04-04T11:54:41.869Z,45.96
2023-04-04T11:57:12.276Z,47.26
2023-04-04T11:59:47.332Z,44.89
2023-04-04T12:02:17.390Z,44.88
2023-04-04T12:04:45.868Z,46.01
2023-04-04T12:07:13.817Z,46.06
2023-04-04T12:09:42.210Z,47.91
2023-04-04T12:12:16.442Z,48.90
2023-04-04T12:14:43.478Z,49.68
2023-04-04T12:17:10.161Z,50.20
2023-04-04T12:19:38.580Z,50.18
2023-04-04T12:22:05.982Z,49.34
2023-04-04T12:24:33.183Z,50.59
2023-04-04T12:26:59.780Z,50.20
2023-04-04T12:29:29.803Z,50.62
2023-04-04T12:31:57.638Z,50.55
2023-04-04T12:34:25.871Z,50.27
2023-04-04T12:36:53.074Z,50.48
2023-04-04T12:39:20.570Z,50.77
2023-04-04T12:42:01.857Z,50.51
2023-04-04T12:44:35.437Z,49.82
2023-04-04T12:47:09.459Z,49.00
2023-04-04T12:49:45.826Z,47.17
2023-04-04T12:52:23.426Z,46.69
2023-04-04T12:55:06.918Z,46.26
2023-04-04T12:57:36.117Z,46.03
2023-04-04T13:00:06.598Z,46.44
2023-04-04T13:02:35.677Z,46.63
2023-04-04T13:05:07.072Z,46.30
2023-04-04T13:07:42.778Z,47.02
2023-04-04T13:10:12.016Z,46.80
2023-04-04T13:13:01.467Z,47.54
2023-04-04T13:15:50.905Z,47.61
2023-04-04T13:18:25.528Z,48.20
2023-04-04T13:20:53.266Z,47.53
2023-04-04T13:23:20.903Z,47.71
2023-04-04T13:25:47.699Z,47.36
2023-04-04T13:28:14.536Z,47.18
2023-04-04T13:30:46.720Z,47.08
2023-04-04T13:33:13.882Z,47.12
2023-04-04T13:35:42.849Z,47.31
2023-04-04T13:38:09.943Z,47.16
2023-04-04T13:40:36.760Z,47.45
2023-04-04T13:43:04.751Z,46.87
2023-04-04T13:45:34.969Z,46.19
2023-04-04T13:48:03.034Z,45.50
2023-04-04T13:50:32.071Z,44.87
2023-04-04T13:52:59.057Z,45.76
2023-04-04T13:55:26.983Z,45.43
2023-04-04T13:57:53.675Z,44.34
2023-04-04T14:00:20.740Z,44.79
2023-04-04T14:02:49.771Z,45.38
2023-04-04T14:05:16.777Z,45.49
2023-04-04T14:07:43.585Z,45.54
2023-04-04T14:10:11.766Z,45.14
2023-04-04T14:12:38.759Z,45.67
2023-04-04T14:15:07.384Z,45.80
2023-04-04T14:17:34.223Z,45.84
2023-04-04T14:20:00.932Z,45.45
2023-04-04T14:22:27.524Z,44.71
2023-04-04T14:24:54.148Z,45.65
2023-04-04T14:27:20.894Z,45.92
2023-04-04T14:29:47.532Z,45.63
2023-04-04T14:32:14.313Z,44.98
2023-04-04T14:34:40.972Z,45.16
2023-04-04T14:37:08.151Z,45.63
2023-04-04T14:39:34.872Z,46.00
2023-04-04T14:42:01.735Z,45.06
2023-04-04T14:44:28.556Z,45.61
2023-04-04T14:46:55.468Z,44.83
2023-04-04T14:49:22.158Z,44.44
2023-04-04T14:51:48.723Z,44.26
2023-04-04T14:54:15.452Z,44.05
2023-04-04T14:56:43.179Z,44.20
2023-04-04T14:59:10.053Z,43.55
2023-04-04T15:01:36.685Z,43.83
2023-04-04T15:04:05.217Z,44.09
2023-04-04T15:06:36.103Z,43.67
2023-04-04T15:09:06.042Z,43.24
2023-04-04T15:11:32.792Z,43.62
2023-04-04T15:13:59.337Z,44.46
2023-04-04T15:16:26.167Z,44.35
2023-04-04T15:18:52.694Z,45.22
2023-04-04T15:21:19.168Z,44.90
2023-04-04T15:23:46.195Z,45.14
2023-04-04T15:26:12.791Z,44.72
2023-04-04T15:28:39.336Z,45.51
2023-04-04T15:31:06.229Z,45.49
2023-04-04T15:33:33.032Z,46.45
2023-04-04T15:35:59.617Z,46.26
2023-04-04T15:38:26.168Z,46.08
2023-04-04T15:40:52.820Z,46.88
2023-04-04T15:43:19.332Z,46.14
2023-04-04T15:45:47.350Z,46.07
2023-04-04T15:48:14.000Z,46.07
2023-04-04T15:50:41.062Z,46.54
2023-04-04T15:53:07.976Z,46.24
2023-04-04T15:55:34.475Z,46.15
2023-04-04T15:58:00.987Z,45.75
2023-04-04T16:00:30.136Z,45.97
2023-04-04T16:02:58.296Z,46.75
2023-04-04T16:05:25.035Z,47.18
2023-04-04T16:07:51.741Z,47.25
2023-04-04T16:10:18.349Z,47.22
2023-04-04T16:12:45.780Z,47.19
2023-04-04T16:15:12.842Z,47.31
2023-04-04T16:17:39.473Z,47.51
2023-04-04T16:20:07.930Z,48.43
2023-04-04T16:22:34.626Z,47.66
2023-04-04T16:25:01.304Z,48.19
2023-04-04T16:27:27.801Z,47.57
2023-04-04T16:29:54.508Z,47.99
2023-04-04T16:32:21.249Z,48.47
2023-04-04T16:34:47.863Z,49.39
2023-04-04T16:37:16.438Z,49.01
2023-04-04T16:39:43.075Z,49.45
2023-04-04T16:42:09.577Z,49.03
2023-04-04T16:44:36.573Z,49.11
2023-04-04T16:47:04.632Z,49.87
2023-04-04T16:49:31.220Z,49.50
2023-04-04T16:51:58.646Z,49.07
2023-04-04T16:54:25.416Z,49.34
2023-04-04T16:56:52.052Z,48.84
2023-04-04T16:59:19.820Z,48.79
2023-04-04T17:01:49.224Z,49.70
2023-04-04T17:04:16.234Z,49.58
2023-04-04T17:06:43.162Z,50.37
2023-04-04T17:09:09.909Z,50.06
2023-04-04T17:11:36.484Z,49.92
2023-04-04T17:14:07.796Z,50.24
2023-04-04T17:16:34.496Z,49.44
2023-04-04T17:19:01.242Z,49.19
2023-04-04T17:21:28.130Z,49.82
2023-04-04T17:23:54.736Z,51.04
2023-04-04T17:26:21.380Z,50.77
2023-04-04T17:28:48.155Z,49.12
2023-04-04T17:31:16.396Z,49.96
2023-04-04T17:33:43.232Z,49.72
2023-04-04T17:36:10.880Z,51.10
2023-04-04T17:38:39.487Z,50.33
2023-04-04T17:41:07.801Z,50.19
2023-04-04T17:43:34.880Z,49.35
2023-04-04T17:46:06.634Z,48.87
2023-04-04T17:48:36.826Z,49.73
2023-04-04T17:51:06.857Z,49.55
2023-04-04T17:53:34.796Z,49.84
2023-04-04T17:56:01.512Z,49.99
2023-04-04T17:58:28.067Z,50.63
2023-04-04T18:00:56.218Z,50.48
2023-04-04T18:03:26.510Z,50.21
2023-04-04T18:05:53.237Z,50.30
2023-04-04T18:08:19.962Z,50.59
2023-04-04T18:10:46.569Z,49.90
2023-04-04T18:13:13.288Z,50.30
2023-04-04T18:15:40.075Z,50.88
2023-04-04T18:18:06.833Z,50.59
2023-04-04T18:20:35.489Z,50.54
2023-04-04T18:23:04.258Z,50.59
2023-04-04T18:25:31.858Z,50.79
2023-04-04T18:27:58.397Z,50.34
2023-04-04T18:30:25.525Z,50.28
2023-04-04T18:32:52.207Z,50.02
2023-04-04T18:35:18.964Z,50.16
2023-04-04T18:37:45.461Z,50.21
2023-04-04T18:40:12.217Z,50.22
2023-04-04T18:42:38.881Z,50.00
2023-04-04T18:45:08.045Z,50.34
2023-04-04T18:47:34.848Z,50.12
2023-04-04T18:50:01.522Z,50.86
2023-04-04T18:52:28.161Z,50.50
2023-04-04T18:54:54.711Z,51.07
2023-04-04T18:57:21.526Z,51.20
2023-04-04T18:59:48.026Z,50.81
2023-04-04T19:02:14.498Z,50.69
2023-04-04T19:04:41.255Z,50.89
2023-04-04T19:07:08.328Z,51.11
2023-04-04T19:09:36.626Z,51.23
2023-04-04T19:12:04.926Z,52.05
2023-04-04T19:14:31.749Z,51.89
2023-04-04T19:16:58.583Z,52.08
2023-04-04T19:19:25.553Z,52.45
2023-04-04T19:21:52.357Z,52.49
2023-04-04T19:24:19.008Z,53.34
2023-04-04T19:26:45.767Z,53.80
2023-04-04T19:29:18.469Z,53.88
2023-04-04T19:31:45.533Z,54.45
2023-04-04T19:34:14.934Z,54.64
2023-04-04T19:36:41.998Z,54.91
2023-04-04T19:39:10.911Z,54.92
2023-04-04T19:41:39.189Z,55.46
2023-04-04T19:44:18.559Z,55.81
2023-04-04T19:46:45.465Z,55.89
2023-04-04T19:49:12.917Z,56.50
2023-04-04T19:51:53.689Z,56.63
2023-04-04T19:54:25.624Z,56.84
2023-04-04T19:56:58.139Z,57.84
2023-04-04T19:59:49.809Z,58.18
2023-04-04T20:02:35.096Z,58.18
2023-04-04T20:05:03.287Z,58.54
2023-04-04T20:07:29.936Z,58.92
2023-04-04T20:09:56.551Z,59.48
2023-04-04T20:12:24.537Z,61.89
2023-04-04T20:14:51.623Z,61.66
2023-04-04T20:17:18.582Z,60.98
2023-04-04T20:19:45.348Z,60.91
2023-04-04T20:22:12.384Z,60.93
2023-04-04T20:24:39.495Z,61.38
2023-04-04T20:27:06.225Z,61.44
2023-04-04T20:29:34.254Z,61.55
2023-04-04T20:32:05.415Z,61.56
2023-04-04T20:34:42.567Z,62.08
2023-04-04T20:37:22.106Z,62.18
2023-04-04T20:39:57.049Z,62.40
2023-04-04T20:42:29.238Z,63.25
2023-04-04T20:45:17.002Z,63.24
2023-04-04T20:47:48.660Z,63.87
2023-04-04T20:50:18.427Z,63.83
2023-04-04T20:52:52.991Z,63.22
2023-04-04T20:55:20.632Z,63.84
2023-04-04T20:57:47.416Z,63.54
2023-04-04T21:00:23.286Z,63.51
2023-04-04T21:02:49.778Z,63.09
2023-04-04T21:05:26.627Z,62.90
2023-04-04T21:07:53.125Z,62.83
2023-04-04T21:10:28.609Z,62.98
2023-04-04T21:12:57.380Z,63.22
2023-04-04T21:15:29.085Z,63.34
2023-04-04T21:17:58.780Z,63.34
2023-04-04T21:20:47.235Z,63.75
2023-04-04T21:23:28.797Z,63.80
2023-04-04T21:26:04.320Z,63.57
2023-04-04T21:28:36.404Z,63.81
2023-04-04T21:31:12.047Z,64.26
2023-04-04T21:33:38.860Z,64.18
2023-04-04T21:36:07.550Z,64.29
2023-04-04T21:38:35.379Z,64.43
2023-04-04T21:41:07.796Z,65.19
2023-04-04T21:43:34.314Z,65.24
2023-04-04T21:46:00.945Z,65.14
2023-04-04T21:48:27.628Z,65.48
2023-04-04T21:50:54.134Z,66.04
2023-04-04T21:53:22.418Z,66.26
2023-04-04T21:55:48.910Z,66.36
2023-04-04T21:58:15.543Z,67.67
2023-04-04T22:00:42.305Z,67.95
2023-04-04T22:03:09.107Z,67.67
2023-04-04T22:05:39.081Z,67.70
2023-04-04T22:08:06.610Z,67.62
2023-04-04T22:10:33.332Z,67.52
2023-04-04T22:12:59.783Z,67.60
2023-04-04T22:15:29.764Z,67.81
2023-04-04T22:18:04.259Z,67.75
2023-04-04T22:20:33.590Z,67.82
2023-04-04T22:23:00.154Z,68.02
2023-04-04T22:25:27.287Z,67.63
2023-04-04T22:27:53.949Z,67.83
2023-04-04T22:30:21.669Z,68.72
2023-04-04T22:32:48.441Z,68.46
2023-04-04T22:35:15.076Z,68.40
2023-04-04T22:37:41.544Z,69.16
2023-04-04T22:40:12.535Z,69.39
2023-04-04T22:42:39.006Z,69.65
2023-04-04T22:45:05.874Z,69.83
2023-04-04T22:47:32.432Z,69.78
2023-04-04T22:50:04.666Z,69.88
2023-04-04T22:52:31.944Z,69.92
2023-04-04T22:54:59.570Z,70.35
2023-04-04T22:57:26.207Z,70.39
2023-04-04T22:59:52.971Z,71.08
2023-04-04T23:02:19.461Z,70.84
2023-04-04T23:04:46.139Z,70.72
2023-04-04T23:07:12.703Z,70.31
2023-04-04T23:09:39.216Z,71.09
2023-04-04T23:12:05.967Z,71.06
2023-04-04T23:14:38.670Z,70.79
2023-04-04T23:17:06.235Z,70.92
2023-04-04T23:19:32.737Z,71.54
2023-04-04T23:21:59.612Z,71.43
2023-04-04T23:24:26.446Z,71.90
2023-04-04T23:26:52.963Z,71.98
2023-04-04T23:29:19.511Z,71.67
2023-04-04T23:31:46.240Z,71.82
2023-04-04T23:34:12.787Z,72.15
2023-04-04T23:36:39.410Z,72.34
2023-04-04T23:39:06.371Z,72.35
2023-04-04T23:41:33.052Z,72.39
2023-04-04T23:43:59.612Z,72.46
2023-04-04T23:46:26.208Z,72.64
2023-04-04T23:48:52.747Z,72.47
2023-04-04T23:51:19.311Z,72.58
2023-04-04T23:53:45.998Z,73.07
2023-04-04T23:56:12.475Z,72.97
2023-04-04T23:58:39.069Z,72.85
